createdAt,value
2022-12-23T00:00:29.542Z,100108.22
2022-12-23T00:02:56.784Z,100108.22
2022-12-23T00:05:23.792Z,100114.28
2022-12-23T00:07:50.712Z,100112.56
2022-12-23T00:10:17.654Z,100104.78
2022-12-23T00:13:03.128Z,100103.94
2022-12-23T00:15:30.012Z,100103.09
2022-12-23T00:17:56.925Z,100098.75
2022-12-23T00:20:23.905Z,100106.50
2022-12-23T00:23:05.567Z,100096.13
2022-12-23T00:25:41.736Z,100104.81
2022-12-23T00:28:18.473Z,100096.13
2022-12-23T00:30:59.766Z,100098.75
2022-12-23T00:33:31.225Z,100098.72
2022-12-23T00:35:58.416Z,100095.28
2022-12-23T00:38:45.170Z,100090.94
2022-12-23T00:41:36.500Z,100097.03
2022-12-23T00:44:04.854Z,100103.94
2022-12-23T00:46:32.070Z,100101.34
2022-12-23T00:49:17.325Z,100099.63
2022-12-23T00:51:44.246Z,100099.63
2022-12-23T00:54:11.148Z,100085.78
2022-12-23T00:56:38.043Z,100081.47
2022-12-23T00:59:04.932Z,100089.25
2022-12-23T01:01:50.695Z,100090.97
2022-12-23T01:04:36.470Z,100084.94
2022-12-23T01:07:04.909Z,100082.31
2022-12-23T01:09:32.099Z,100088.38
2022-12-23T01:11:59.028Z,100064.09
2022-12-23T01:14:26.364Z,100077.09
2022-12-23T01:16:53.363Z,100078.00
2022-12-23T01:19:20.262Z,100078.88
2022-12-23T01:21:47.200Z,100077.16
2022-12-23T01:24:14.165Z,100072.81
2022-12-23T01:26:41.040Z,100079.72
2022-12-23T01:29:07.914Z,100078.88
2022-12-23T01:31:34.929Z,100074.53
2022-12-23T01:34:01.914Z,100070.22
2022-12-23T01:36:28.837Z,100071.94
2022-12-23T01:38:57.169Z,100070.22
2022-12-23T01:41:45.672Z,100071.94
2022-12-23T01:44:51.951Z,100071.94
2022-12-23T01:47:40.318Z,100065.88
2022-12-23T01:50:20.698Z,100060.69
2022-12-23T01:53:08.739Z,100058.97
2022-12-23T01:55:43.726Z,100058.09
2022-12-23T01:58:16.783Z,100057.25
2022-12-23T02:01:02.560Z,100053.78
2022-12-23T02:03:42.864Z,100050.31
2022-12-23T02:06:45.472Z,100060.69
2022-12-23T02:09:19.608Z,100060.69
2022-12-23T02:12:27.184Z,100062.41
2022-12-23T02:15:40.889Z,100056.34
2022-12-23T02:18:39.602Z,100071.06
2022-12-23T02:21:13.433Z,100069.31
2022-12-23T02:24:07.006Z,100066.72
2022-12-23T02:27:00.752Z,100068.47
2022-12-23T02:30:04.413Z,100057.22
2022-12-23T02:32:44.043Z,100065.88
2022-12-23T02:35:29.303Z,100051.19
2022-12-23T02:38:04.816Z,100058.09
2022-12-23T02:41:05.737Z,100059.81
2022-12-23T02:43:51.671Z,100055.50
2022-12-23T02:46:38.656Z,100055.50
2022-12-23T02:49:21.952Z,100049.44
2022-12-23T02:51:53.833Z,100041.63
2022-12-23T02:54:32.463Z,100047.69
2022-12-23T02:57:03.590Z,100049.44
2022-12-23T02:59:37.419Z,100053.78
2022-12-23T03:02:04.415Z,100064.13
2022-12-23T03:04:31.483Z,100057.25
2022-12-23T03:07:07.401Z,100054.63
2022-12-23T03:10:27.001Z,100056.34
2022-12-23T03:13:48.015Z,100055.50
2022-12-23T03:16:28.888Z,100053.78
2022-12-23T03:19:35.054Z,100052.91
2022-12-23T03:22:35.320Z,100060.69
2022-12-23T03:25:18.694Z,100056.38
2022-12-23T03:27:52.910Z,100069.34
2022-12-23T03:30:22.446Z,100064.16
2022-12-23T03:33:01.324Z,100059.84
2022-12-23T03:35:46.664Z,100061.56
2022-12-23T03:38:16.804Z,100060.69
2022-12-23T03:40:49.572Z,100052.03
2022-12-23T03:43:50.397Z,100054.63
2022-12-23T03:46:25.781Z,100057.25
2022-12-23T03:48:58.196Z,100046.00
2022-12-23T03:51:34.059Z,100043.41
2022-12-23T03:54:13.145Z,100049.47
2022-12-23T03:56:46.256Z,100054.66
2022-12-23T03:59:27.187Z,100047.72
2022-12-23T04:02:06.624Z,100038.22
2022-12-23T04:04:49.782Z,100037.34
2022-12-23T04:07:24.010Z,100033.03
2022-12-23T04:09:53.437Z,100034.75
2022-12-23T04:12:24.773Z,100036.50
2022-12-23T04:14:52.517Z,100029.56
2022-12-23T04:17:20.249Z,100030.44
2022-12-23T04:19:47.412Z,100028.69
2022-12-23T04:22:15.667Z,100022.63
2022-12-23T04:24:43.114Z,100028.69
2022-12-23T04:27:13.972Z,100023.50
2022-12-23T04:29:41.020Z,100020.91
2022-12-23T04:32:08.205Z,100020.91
2022-12-23T04:34:35.135Z,100019.16
2022-12-23T04:37:02.057Z,100032.16
2022-12-23T04:39:29.026Z,100012.25
2022-12-23T04:41:55.906Z,100023.50
2022-12-23T04:44:22.839Z,100034.75
2022-12-23T04:46:49.775Z,100032.16
2022-12-23T04:49:16.699Z,100033.00
2022-12-23T04:51:43.582Z,100033.91
2022-12-23T04:54:10.533Z,100034.75
2022-12-23T04:56:37.454Z,100039.09
2022-12-23T04:59:04.416Z,100049.47
2022-12-23T05:01:31.443Z,100043.44
2022-12-23T05:03:58.483Z,100040.84
2022-12-23T05:06:25.396Z,100033.03
2022-12-23T05:08:52.311Z,100039.06
2022-12-23T05:11:19.284Z,100035.63
2022-12-23T05:13:46.168Z,100026.97
2022-12-23T05:16:13.120Z,100022.63
2022-12-23T05:18:40.037Z,100026.09
2022-12-23T05:21:06.934Z,100026.09
2022-12-23T05:23:33.873Z,100025.25
2022-12-23T05:26:00.852Z,100034.75
2022-12-23T05:28:27.753Z,100035.63
2022-12-23T05:31:02.115Z,100030.41
2022-12-23T05:33:30.063Z,100038.22
2022-12-23T05:35:57.671Z,100029.56
2022-12-23T05:38:25.178Z,100036.47
2022-12-23T05:40:52.108Z,100031.28
2022-12-23T05:43:19.222Z,100045.16
2022-12-23T05:45:47.519Z,100048.59
2022-12-23T05:48:14.474Z,100045.16
2022-12-23T05:50:41.773Z,100042.53
2022-12-23T05:53:09.255Z,100047.75
2022-12-23T05:55:36.393Z,100047.72
2022-12-23T05:58:03.301Z,100039.97
2022-12-23T06:00:30.216Z,100042.53
2022-12-23T06:02:57.413Z,100041.66
2022-12-23T06:05:24.434Z,100047.72
2022-12-23T06:07:51.361Z,100043.41
2022-12-23T06:10:18.656Z,100039.94
2022-12-23T06:12:45.600Z,100044.28
2022-12-23T06:15:12.700Z,100053.78
2022-12-23T06:17:39.590Z,100053.78
2022-12-23T06:20:07.466Z,100061.56
2022-12-23T06:22:34.350Z,100058.13
2022-12-23T06:25:01.258Z,100055.53
2022-12-23T06:27:28.194Z,100051.19
2022-12-23T06:29:55.129Z,100047.72
2022-12-23T06:32:22.017Z,100043.41
2022-12-23T06:34:53.208Z,100040.81
2022-12-23T06:37:21.166Z,100037.34
2022-12-23T06:39:48.127Z,100052.91
2022-12-23T06:42:15.001Z,100049.44
2022-12-23T06:44:41.919Z,100069.38
2022-12-23T06:47:08.816Z,100066.78
2022-12-23T06:49:35.718Z,100075.41
2022-12-23T06:52:02.741Z,100078.00
2022-12-23T06:54:29.694Z,100082.31
2022-12-23T06:56:56.590Z,100094.47
2022-12-23T06:59:23.666Z,100091.00
2022-12-23T07:01:50.642Z,100091.88
2022-12-23T07:04:17.702Z,100076.28
2022-12-23T07:06:44.660Z,100090.16
2022-12-23T07:09:11.585Z,100078.88
2022-12-23T07:11:38.546Z,100087.53
2022-12-23T07:14:05.547Z,100100.53
2022-12-23T07:16:32.521Z,100102.25
2022-12-23T07:18:59.551Z,100100.50
2022-12-23T07:21:29.539Z,100097.94
2022-12-23T07:23:56.869Z,100116.97
2022-12-23T07:26:23.800Z,100112.63
2022-12-23T07:28:50.690Z,100115.22
2022-12-23T07:31:17.669Z,100106.59
2022-12-23T07:33:44.847Z,100099.63
2022-12-23T07:36:11.722Z,100103.13
2022-12-23T07:38:38.609Z,100099.66
2022-12-23T07:41:05.608Z,100103.09
2022-12-23T07:43:32.612Z,100100.53
2022-12-23T07:46:00.756Z,100099.66
2022-12-23T07:48:28.331Z,100104.84
2022-12-23T07:51:01.881Z,100097.06
2022-12-23T07:53:28.989Z,100104.88
2022-12-23T07:55:57.116Z,100111.81
2022-12-23T07:58:24.734Z,100110.91
2022-12-23T08:00:59.166Z,100116.13
2022-12-23T08:03:26.149Z,100114.41
2022-12-23T08:06:05.096Z,100117.00
2022-12-23T08:08:32.995Z,100121.31
2022-12-23T08:11:03.251Z,100119.56
2022-12-23T08:13:32.580Z,100126.50
2022-12-23T08:16:01.805Z,100135.16
2022-12-23T08:18:32.047Z,100143.81
2022-12-23T08:21:01.904Z,100143.81
2022-12-23T08:23:30.663Z,100148.16
2022-12-23T08:26:10.170Z,100151.63
2022-12-23T08:28:38.918Z,100142.94
2022-12-23T08:31:22.224Z,100142.09
2022-12-23T08:33:52.942Z,100149.06
2022-12-23T08:36:23.922Z,100136.91
2022-12-23T08:38:53.318Z,100141.25
2022-12-23T08:41:29.853Z,100155.09
2022-12-23T08:43:57.521Z,100149.94
2022-12-23T08:46:25.185Z,100148.19
2022-12-23T08:48:52.808Z,100155.09
2022-12-23T08:51:24.868Z,100158.59
2022-12-23T08:53:59.868Z,100165.50
2022-12-23T08:56:32.383Z,100162.03
2022-12-23T08:58:59.815Z,100163.78
2022-12-23T09:01:30.606Z,100163.75
2022-12-23T09:03:57.996Z,100163.75
2022-12-23T09:06:30.066Z,100170.72
2022-12-23T09:08:58.483Z,100170.69
2022-12-23T09:11:27.915Z,100174.19
2022-12-23T09:13:56.021Z,100175.03
2022-12-23T09:16:23.005Z,100189.75
2022-12-23T09:18:49.963Z,100183.72
2022-12-23T09:21:20.813Z,100184.56
2022-12-23T09:23:48.266Z,100180.25
2022-12-23T09:26:24.777Z,100182.84
2022-12-23T09:28:52.018Z,100182.84
2022-12-23T09:31:19.779Z,100182.88
2022-12-23T09:33:48.250Z,100183.72
2022-12-23T09:36:15.581Z,100175.94
2022-12-23T09:38:42.749Z,100178.53
2022-12-23T09:41:43.548Z,100192.44
2022-12-23T09:44:26.235Z,100194.16
2022-12-23T09:46:57.744Z,100201.97
2022-12-23T09:49:24.797Z,100206.28
2022-12-23T09:52:00.094Z,100197.63
2022-12-23T09:54:30.968Z,100197.59
2022-12-23T09:57:11.732Z,100212.34
2022-12-23T10:00:11.568Z,100216.66
2022-12-23T10:02:42.321Z,100213.19
2022-12-23T10:05:48.218Z,100214.94
2022-12-23T10:08:33.710Z,100213.19
2022-12-23T10:11:16.950Z,100223.63
2022-12-23T10:14:00.892Z,100217.56
2022-12-23T10:16:39.428Z,100205.41
2022-12-23T10:19:29.051Z,100214.09
2022-12-23T10:22:06.177Z,100213.22
2022-12-23T10:24:43.376Z,100221.88
2022-12-23T10:27:32.613Z,100207.16
2022-12-23T10:30:20.088Z,100213.22
2022-12-23T10:33:08.810Z,100223.59
2022-12-23T10:36:07.454Z,100236.59
2022-12-23T10:38:51.898Z,100238.34
2022-12-23T10:42:20.709Z,100236.56
2022-12-23T10:45:32.762Z,100246.09
2022-12-23T10:48:25.695Z,100248.66
2022-12-23T10:51:15.071Z,100241.72
2022-12-23T10:54:09.731Z,100251.22
2022-12-23T10:56:37.179Z,100248.63
2022-12-23T10:59:05.793Z,100239.13
2022-12-23T11:01:33.137Z,100252.09
2022-12-23T11:04:09.894Z,100246.94
2022-12-23T11:06:44.336Z,100240.00
2022-12-23T11:09:22.820Z,100246.09
2022-12-23T11:12:12.227Z,100243.47
2022-12-23T11:14:56.547Z,100238.31
2022-12-23T11:17:28.099Z,100251.34
2022-12-23T11:20:17.084Z,100240.94
2022-12-23T11:22:51.785Z,100247.00
2022-12-23T11:25:33.532Z,100236.59
2022-12-23T11:28:12.305Z,100241.81
2022-12-23T11:30:56.232Z,100233.16
2022-12-23T11:33:36.566Z,100242.69
2022-12-23T11:36:15.579Z,100242.66
2022-12-23T11:39:12.156Z,100240.94
2022-12-23T11:41:47.521Z,100233.16
2022-12-23T11:44:31.000Z,100238.34
2022-12-23T11:46:58.254Z,100238.34
2022-12-23T11:49:33.880Z,100231.41
2022-12-23T11:52:12.762Z,100233.13
2022-12-23T11:54:40.354Z,100242.69
2022-12-23T11:57:17.643Z,100239.19
2022-12-23T11:59:51.242Z,100241.81
2022-12-23T12:02:30.650Z,100238.31
2022-12-23T12:05:18.500Z,100247.03
2022-12-23T12:07:46.199Z,100240.09
2022-12-23T12:10:21.673Z,100254.81
2022-12-23T12:12:59.347Z,100245.28
2022-12-23T12:15:48.528Z,100244.41
2022-12-23T12:18:19.268Z,100253.09
2022-12-23T12:20:53.967Z,100254.81
2022-12-23T12:24:08.345Z,100257.41
2022-12-23T12:26:40.728Z,100260.88
2022-12-23T12:29:27.766Z,100259.16
2022-12-23T12:32:00.333Z,100247.00
2022-12-23T12:34:56.468Z,100256.56
2022-12-23T12:37:45.443Z,100273.88
2022-12-23T12:40:21.047Z,100271.28
2022-12-23T12:43:22.071Z,100269.56
2022-12-23T12:46:08.711Z,100266.94
2022-12-23T12:49:02.419Z,100269.56
2022-12-23T12:52:01.007Z,100259.13
2022-12-23T12:54:52.969Z,100273.91
2022-12-23T12:57:22.871Z,100282.56
2022-12-23T12:59:59.929Z,100275.63
2022-12-23T13:03:11.951Z,100275.63
2022-12-23T13:06:40.048Z,100279.94
2022-12-23T13:09:44.643Z,100282.53
2022-12-23T13:13:11.202Z,100281.69
2022-12-23T13:16:02.359Z,100285.16
2022-12-23T13:19:01.064Z,100284.28
2022-12-23T13:22:11.842Z,100282.56
2022-12-23T13:25:18.471Z,100284.28
2022-12-23T13:28:12.836Z,100282.53
2022-12-23T13:30:47.322Z,100275.59
2022-12-23T13:33:52.979Z,100270.41
2022-12-23T13:36:47.578Z,100274.72
2022-12-23T13:39:50.548Z,100268.66
2022-12-23T13:42:34.353Z,100263.47
2022-12-23T13:45:02.461Z,100257.41
2022-12-23T13:48:05.301Z,100256.53
2022-12-23T13:50:43.611Z,100256.53
2022-12-23T13:53:30.936Z,100257.41
2022-12-23T13:56:10.420Z,100255.69
2022-12-23T13:58:40.004Z,100259.16
2022-12-23T14:01:09.637Z,100262.59
2022-12-23T14:03:39.147Z,100249.59
2022-12-23T14:06:24.157Z,100243.53
2022-12-23T14:08:53.435Z,100249.63
2022-12-23T14:11:34.301Z,100238.34
2022-12-23T14:14:05.149Z,100244.41
2022-12-23T14:17:06.788Z,100252.22
2022-12-23T14:19:53.989Z,100252.22
2022-12-23T14:22:58.672Z,100240.09
2022-12-23T14:25:31.661Z,100247.00
2022-12-23T14:28:26.833Z,100240.94
2022-12-23T14:30:53.805Z,100254.81
2022-12-23T14:33:27.979Z,100248.75
2022-12-23T14:35:58.458Z,100262.59
2022-12-23T14:38:29.186Z,100250.47
2022-12-23T14:41:38.477Z,100254.81
2022-12-23T14:44:37.179Z,100264.34
2022-12-23T14:47:33.017Z,100273.03
2022-12-23T14:50:34.183Z,100265.22
2022-12-23T14:53:23.230Z,100275.63
2022-12-23T14:56:09.212Z,100280.81
2022-12-23T14:59:09.068Z,100282.56
2022-12-23T15:01:55.688Z,100278.22
2022-12-23T15:04:40.660Z,100276.50
2022-12-23T15:07:19.151Z,100278.22
2022-12-23T15:10:00.670Z,100283.41
2022-12-23T15:12:51.155Z,100283.44
2022-12-23T15:15:25.394Z,100282.53
2022-12-23T15:18:10.114Z,100292.94
2022-12-23T15:20:37.018Z,100299.88
2022-12-23T15:23:11.290Z,100288.59
2022-12-23T15:25:46.369Z,100297.28
2022-12-23T15:28:23.446Z,100273.88
2022-12-23T15:30:54.400Z,100279.09
2022-12-23T15:34:01.732Z,100273.88
2022-12-23T15:36:12.574Z,100270.41
2022-12-23T15:38:39.690Z,100270.44
2022-12-23T15:41:15.828Z,100267.81
2022-12-23T15:43:44.027Z,100268.69
2022-12-23T15:46:28.620Z,100273.88
2022-12-23T15:48:56.361Z,100264.34
2022-12-23T15:52:11.017Z,100277.34
2022-12-23T15:54:32.384Z,100278.22
2022-12-23T15:57:01.486Z,100273.88
2022-12-23T15:59:37.824Z,100276.47
2022-12-23T16:05:32.503Z,100285.16
2022-12-23T16:08:29.851Z,100286.88
2022-12-23T16:11:18.057Z,100286.88
2022-12-23T16:14:00.159Z,100304.19
2022-12-23T16:16:42.880Z,100295.53
2022-12-23T16:19:52.818Z,100290.34
2022-12-23T16:22:37.297Z,100291.19
2022-12-23T16:25:31.628Z,100296.38
2022-12-23T16:28:15.159Z,100292.91
2022-12-23T16:30:42.838Z,100296.38
2022-12-23T16:33:42.026Z,100287.69
2022-12-23T16:36:33.095Z,100291.19
2022-12-23T16:39:17.424Z,100287.72
2022-12-23T16:41:44.644Z,100290.31
2022-12-23T16:44:11.616Z,100293.75
2022-12-23T16:46:43.626Z,100304.16
2022-12-23T16:49:18.120Z,100281.63
2022-12-23T16:51:45.703Z,100285.91
2022-12-23T16:54:17.322Z,100291.16
2022-12-23T16:56:46.873Z,100284.22
2022-12-23T16:59:14.737Z,100281.59
2022-12-23T17:01:45.782Z,100281.63
2022-12-23T17:04:12.982Z,100274.69
2022-12-23T17:06:40.750Z,100277.25
2022-12-23T17:09:10.255Z,100274.66
2022-12-23T17:11:44.340Z,100271.16
2022-12-23T17:14:21.437Z,100265.13
2022-12-23T17:16:49.514Z,100273.78
2022-12-23T17:19:23.373Z,100268.56
2022-12-23T17:22:02.847Z,100260.75
2022-12-23T17:24:29.857Z,100264.22
2022-12-23T17:26:57.365Z,100265.09
2022-12-23T17:29:24.412Z,100257.28
2022-12-23T17:31:51.771Z,100256.41
2022-12-23T17:34:24.567Z,100250.34
2022-12-23T17:36:51.703Z,100256.41
2022-12-23T17:39:20.776Z,100257.28
2022-12-23T17:41:48.533Z,100251.22
2022-12-23T17:44:17.137Z,100249.47
2022-12-23T17:46:45.951Z,100253.78
2022-12-23T17:49:13.122Z,100253.78
2022-12-23T17:51:41.305Z,100253.81
2022-12-23T17:54:24.450Z,100255.53
2022-12-23T17:56:52.037Z,100252.94
2022-12-23T17:59:19.942Z,100244.28
2022-12-23T18:01:47.061Z,100252.06
2022-12-23T18:04:13.992Z,100252.94
2022-12-23T18:06:40.916Z,100253.81
2022-12-23T18:09:07.786Z,100252.94
2022-12-23T18:11:39.379Z,100251.22
2022-12-23T18:14:07.655Z,100253.81
2022-12-23T18:16:34.682Z,100255.53
2022-12-23T18:19:01.613Z,100258.16
2022-12-23T18:21:29.268Z,100258.16
2022-12-23T18:23:59.626Z,100262.47
2022-12-23T18:26:26.728Z,100249.50
2022-12-23T18:28:54.335Z,100244.31
2022-12-23T18:31:24.345Z,100246.00
2022-12-23T18:33:52.114Z,100237.38
2022-12-23T18:36:28.251Z,100238.22
2022-12-23T18:38:55.315Z,100233.88
2022-12-23T18:41:23.642Z,100233.03
2022-12-23T18:43:51.308Z,100231.28
2022-12-23T18:46:20.190Z,100232.16
2022-12-23T18:48:47.234Z,100238.22
2022-12-23T18:51:16.343Z,100244.28
2022-12-23T18:53:43.663Z,100240.78
2022-12-23T18:56:15.152Z,100236.47
2022-12-23T18:58:42.186Z,100240.78
2022-12-23T19:01:17.275Z,100248.53
2022-12-23T19:03:45.185Z,100246.81
2022-12-23T19:06:14.717Z,100250.25
2022-12-23T19:08:42.927Z,100241.53
2022-12-23T19:11:19.194Z,100255.41
2022-12-23T19:13:46.806Z,100249.31
2022-12-23T19:16:20.421Z,100259.69
2022-12-23T19:18:48.751Z,100259.69
2022-12-23T19:21:17.796Z,100256.19
2022-12-23T19:23:45.129Z,100244.03
2022-12-23T19:26:14.801Z,100249.16
2022-12-23T19:28:42.489Z,100254.28
2022-12-23T19:31:13.520Z,100259.44
2022-12-23T19:33:42.477Z,100256.81
2022-12-23T19:36:19.604Z,100259.41
2022-12-23T19:38:47.425Z,100266.28
2022-12-23T19:41:14.373Z,100299.00
2022-12-23T19:43:44.847Z,100261.00
2022-12-23T19:46:12.965Z,100271.34
2022-12-23T19:48:40.372Z,100281.69
2022-12-23T19:51:13.400Z,100270.34
2022-12-23T19:53:41.859Z,100270.31
2022-12-23T19:56:13.585Z,100275.44
2022-12-23T19:58:42.879Z,100276.25
2022-12-23T20:01:15.441Z,100282.22
2022-12-23T20:03:43.548Z,100276.97
2022-12-23T20:06:23.782Z,100276.94
2022-12-23T20:08:54.958Z,100279.53
2022-12-23T20:11:26.209Z,100275.16
2022-12-23T20:13:54.551Z,100282.88
2022-12-23T20:16:22.627Z,100281.16
2022-12-23T20:18:49.687Z,100272.53
2022-12-23T20:21:16.571Z,100278.66
2022-12-23T20:23:43.471Z,100285.66
2022-12-23T20:26:12.158Z,100283.94
2022-12-23T20:28:39.228Z,100290.06
2022-12-23T20:31:16.204Z,100291.84
2022-12-23T20:33:45.204Z,100295.31
2022-12-23T20:36:15.495Z,100283.22
2022-12-23T20:38:44.998Z,100292.75
2022-12-23T20:41:18.135Z,100284.97
2022-12-23T20:43:56.932Z,100280.66
2022-12-23T20:46:32.366Z,100289.31
2022-12-23T20:48:59.301Z,100294.56
2022-12-23T20:51:26.402Z,100290.25
2022-12-23T20:53:56.139Z,100287.72
2022-12-23T20:56:27.471Z,100291.16
2022-12-23T20:58:55.195Z,100285.91
2022-12-23T21:01:37.877Z,100282.47
2022-12-23T21:04:09.395Z,100294.56
2022-12-23T21:06:36.454Z,100291.97
2022-12-23T21:09:06.743Z,100297.09
2022-12-23T21:11:40.877Z,100295.34
2022-12-23T21:14:08.167Z,100289.22
2022-12-23T21:16:39.409Z,100286.47
2022-12-23T21:19:14.920Z,100279.53
2022-12-23T21:21:42.162Z,100279.44
2022-12-23T21:24:10.455Z,100272.50
2022-12-23T21:26:37.378Z,100276.81
2022-12-23T21:29:06.714Z,100271.59
2022-12-23T21:31:37.555Z,100273.31
2022-12-23T21:34:04.876Z,100280.19
2022-12-23T21:36:36.962Z,100278.41
2022-12-23T21:39:05.979Z,100280.09
2022-12-23T21:41:37.576Z,100274.06
2022-12-23T21:44:05.426Z,100287.00
2022-12-23T21:46:32.576Z,100270.56
2022-12-23T21:48:59.960Z,100267.03
2022-12-23T21:51:38.995Z,100272.97
2022-12-23T21:54:07.762Z,100270.31
2022-12-23T21:56:34.882Z,100266.84
2022-12-23T21:59:08.453Z,100268.50
2022-12-23T22:01:35.595Z,100265.06
2022-12-23T22:04:02.810Z,100264.22
2022-12-23T22:06:37.256Z,100266.78
2022-12-23T22:09:05.983Z,100265.81
2022-12-23T22:11:35.635Z,100264.88
2022-12-23T22:14:04.817Z,100271.75
2022-12-23T22:16:32.318Z,100268.34
2022-12-23T22:19:01.003Z,100275.25
2022-12-23T22:21:30.647Z,100277.72
2022-12-23T22:23:58.579Z,100282.91
2022-12-23T22:26:31.941Z,100292.31
2022-12-23T22:29:03.114Z,100282.84
2022-12-23T22:31:41.399Z,100286.34
2022-12-23T22:34:12.591Z,100288.13
2022-12-23T22:36:39.568Z,100289.94
2022-12-23T22:39:07.812Z,100284.81
2022-12-23T22:41:35.416Z,100285.78
2022-12-23T22:44:02.419Z,100284.09
2022-12-23T22:46:29.769Z,100272.00
2022-12-23T22:48:58.659Z,100276.41
2022-12-23T22:51:28.909Z,100271.25
2022-12-23T22:53:56.533Z,100272.16
2022-12-23T22:56:24.552Z,100280.78
2022-12-23T22:58:52.938Z,100284.22
2022-12-23T23:01:27.033Z,100289.34
2022-12-23T23:03:57.844Z,100289.31
2022-12-23T23:06:30.768Z,100283.25
2022-12-23T23:08:58.193Z,100286.72
2022-12-23T23:11:27.841Z,100281.50
2022-12-23T23:13:55.581Z,100297.88
2022-12-23T23:16:22.891Z,100293.53
2022-12-23T23:18:50.875Z,100302.97
2022-12-23T23:21:18.018Z,100294.34
2022-12-23T23:23:45.252Z,100293.50
2022-12-23T23:26:12.632Z,100290.88
2022-12-23T23:28:40.806Z,100296.88
2022-12-23T23:33:57.625Z,100295.00
2022-12-23T23:36:24.603Z,100287.19
2022-12-23T23:38:51.554Z,100308.75
2022-12-23T23:41:22.976Z,100306.09
2022-12-23T23:43:51.256Z,100306.84
2022-12-23T23:46:18.415Z,100302.50
2022-12-23T23:48:45.392Z,100306.78
2022-12-23T23:51:12.712Z,100317.09
2022-12-23T23:53:40.264Z,100309.25
2022-12-23T23:56:08.664Z,100325.59
2022-12-23T23:58:37.058Z,100329.81
